sensor_id;sensor_type;location;lat;lon;timestamp;P1;durP1;ratioP1;P2;durP2;ratioP2
67514;SDS011;60646;55.802;37.032;2022-09-16T00:00:41;4.63;;;2.08;;
67514;SDS011;60646;55.802;37.032;2022-09-16T00:03:08;4.43;;;2.40;;
67514;SDS011;60646;55.802;37.032;2022-09-16T00:05:39;3.92;;;2.28;;
67514;SDS011;60646;55.802;37.032;2022-09-16T00:08:06;3.70;;;2.30;;
67514;SDS011;60646;55.802;37.032;2022-09-16T00:10:33;4.45;;;2.55;;
67514;SDS011;60646;55.802;37.032;2022-09-16T00:13:00;4.30;;;2.35;;
67514;SDS011;60646;55.802;37.032;2022-09-16T00:15:26;3.83;;;2.03;;
67514;SDS011;60646;55.802;37.032;2022-09-16T00:17:52;9.05;;;2.50;;
67514;SDS011;60646;55.802;37.032;2022-09-16T00:20:17;4.45;;;2.20;;
67514;SDS011;60646;55.802;37.032;2022-09-16T00:22:43;4.75;;;2.30;;
67514;SDS011;60646;55.802;37.032;2022-09-16T00:25:09;4.10;;;2.58;;
67514;SDS011;60646;55.802;37.032;2022-09-16T00:27:35;4.68;;;2.60;;
67514;SDS011;60646;55.802;37.032;2022-09-16T00:30:02;4.35;;;2.25;;
67514;SDS011;60646;55.802;37.032;2022-09-16T00:32:28;6.97;;;3.08;;
67514;SDS011;60646;55.802;37.032;2022-09-16T00:34:54;7.10;;;2.60;;
67514;SDS011;60646;55.802;37.032;2022-09-16T00:37:20;6.47;;;2.72;;
67514;SDS011;60646;55.802;37.032;2022-09-16T00:39:47;5.40;;;2.63;;
67514;SDS011;60646;55.802;37.032;2022-09-16T00:42:13;6.18;;;2.60;;
67514;SDS011;60646;55.802;37.032;2022-09-16T00:47:32;6.25;;;2.97;;
67514;SDS011;60646;55.802;37.032;2022-09-16T00:50:05;4.13;;;2.53;;
67514;SDS011;60646;55.802;37.032;2022-09-16T00:52:35;5.18;;;3.05;;
67514;SDS011;60646;55.802;37.032;2022-09-16T00:55:03;4.25;;;2.95;;
67514;SDS011;60646;55.802;37.032;2022-09-16T00:57:32;3.78;;;2.50;;
67514;SDS011;60646;55.802;37.032;2022-09-16T00:59:59;7.15;;;2.92;;
67514;SDS011;60646;55.802;37.032;2022-09-16T01:02:26;3.95;;;2.67;;
67514;SDS011;60646;55.802;37.032;2022-09-16T01:04:54;4.78;;;2.80;;
67514;SDS011;60646;55.802;37.032;2022-09-16T01:07:36;5.30;;;3.00;;
67514;SDS011;60646;55.802;37.032;2022-09-16T01:10:05;6.63;;;2.70;;
67514;SDS011;60646;55.802;37.032;2022-09-16T01:12:31;4.78;;;3.08;;
67514;SDS011;60646;55.802;37.032;2022-09-16T01:14:58;4.40;;;2.55;;
67514;SDS011;60646;55.802;37.032;2022-09-16T01:47:03;3.92;;;2.28;;
67514;SDS011;60646;55.802;37.032;2022-09-16T01:55:09;4.25;;;2.47;;
67514;SDS011;60646;55.802;37.032;2022-09-16T01:58:13;3.95;;;2.33;;
67514;SDS011;60646;55.802;37.032;2022-09-16T02:00:42;4.03;;;2.42;;
67514;SDS011;60646;55.802;37.032;2022-09-16T02:03:29;4.13;;;2.42;;
67514;SDS011;60646;55.802;37.032;2022-09-16T02:06:00;4.07;;;2.28;;
67514;SDS011;60646;55.802;37.032;2022-09-16T02:08:45;4.10;;;2.28;;
67514;SDS011;60646;55.802;37.032;2022-09-16T02:11:47;3.47;;;2.08;;
67514;SDS011;60646;55.802;37.032;2022-09-16T02:14:18;3.28;;;2.03;;
67514;SDS011;60646;55.802;37.032;2022-09-16T02:19:29;3.13;;;1.90;;
67514;SDS011;60646;55.802;37.032;2022-09-16T02:21:58;3.30;;;2.00;;
67514;SDS011;60646;55.802;37.032;2022-09-16T02:24:29;3.85;;;2.38;;
67514;SDS011;60646;55.802;37.032;2022-09-16T02:26:58;5.32;;;2.45;;
67514;SDS011;60646;55.802;37.032;2022-09-16T02:29:31;4.57;;;2.70;;
67514;SDS011;60646;55.802;37.032;2022-09-16T02:32:04;4.45;;;2.78;;
67514;SDS011;60646;55.802;37.032;2022-09-16T02:34:33;5.88;;;2.58;;
67514;SDS011;60646;55.802;37.032;2022-09-16T02:37:03;3.33;;;2.20;;
67514;SDS011;60646;55.802;37.032;2022-09-16T02:39:35;4.72;;;2.75;;
67514;SDS011;60646;55.802;37.032;2022-09-16T02:42:03;3.92;;;2.65;;
67514;SDS011;60646;55.802;37.032;2022-09-16T02:44:29;6.05;;;3.10;;
67514;SDS011;60646;55.802;37.032;2022-09-16T02:57:51;3.47;;;2.30;;
67514;SDS011;60646;55.802;37.032;2022-09-16T03:00:17;5.95;;;2.53;;
67514;SDS011;60646;55.802;37.032;2022-09-16T03:02:44;4.60;;;2.33;;
67514;SDS011;60646;55.802;37.032;2022-09-16T03:05:11;4.38;;;2.25;;
67514;SDS011;60646;55.802;37.032;2022-09-16T03:07:38;4.15;;;2.60;;
67514;SDS011;60646;55.802;37.032;2022-09-16T03:10:06;4.40;;;2.78;;
67514;SDS011;60646;55.802;37.032;2022-09-16T03:13:11;4.75;;;2.25;;
67514;SDS011;60646;55.802;37.032;2022-09-16T03:27:34;5.40;;;2.60;;
67514;SDS011;60646;55.802;37.032;2022-09-16T03:30:07;3.53;;;2.40;;
67514;SDS011;60646;55.802;37.032;2022-09-16T03:32:38;6.57;;;2.75;;
67514;SDS011;60646;55.802;37.032;2022-09-16T03:35:32;5.45;;;3.00;;
67514;SDS011;60646;55.802;37.032;2022-09-16T03:38:03;4.25;;;2.55;;
67514;SDS011;60646;55.802;37.032;2022-09-16T03:40:31;3.97;;;2.15;;
67514;SDS011;60646;55.802;37.032;2022-09-16T03:42:58;4.10;;;2.65;;
67514;SDS011;60646;55.802;37.032;2022-09-16T03:45:24;3.75;;;2.55;;
67514;SDS011;60646;55.802;37.032;2022-09-16T03:47:50;4.45;;;2.90;;
67514;SDS011;60646;55.802;37.032;2022-09-16T03:50:18;5.25;;;2.80;;
67514;SDS011;60646;55.802;37.032;2022-09-16T03:52:44;4.80;;;2.83;;
67514;SDS011;60646;55.802;37.032;2022-09-16T03:55:10;5.20;;;2.95;;
67514;SDS011;60646;55.802;37.032;2022-09-16T03:57:37;5.10;;;2.80;;
67514;SDS011;60646;55.802;37.032;2022-09-16T04:00:03;4.72;;;2.78;;
67514;SDS011;60646;55.802;37.032;2022-09-16T04:02:37;5.38;;;3.03;;
67514;SDS011;60646;55.802;37.032;2022-09-16T04:05:03;4.60;;;2.75;;
67514;SDS011;60646;55.802;37.032;2022-09-16T04:07:30;4.53;;;2.95;;
67514;SDS011;60646;55.802;37.032;2022-09-16T04:09:58;5.95;;;3.30;;
67514;SDS011;60646;55.802;37.032;2022-09-16T04:12:24;4.80;;;3.13;;
67514;SDS011;60646;55.802;37.032;2022-09-16T04:14:49;6.57;;;3.53;;
67514;SDS011;60646;55.802;37.032;2022-09-16T04:17:15;4.22;;;2.72;;
67514;SDS011;60646;55.802;37.032;2022-09-16T04:19:41;3.83;;;2.65;;
67514;SDS011;60646;55.802;37.032;2022-09-16T04:22:07;4.07;;;2.65;;
67514;SDS011;60646;55.802;37.032;2022-09-16T04:24:33;6.20;;;2.85;;
67514;SDS011;60646;55.802;37.032;2022-09-16T04:26:59;3.97;;;2.80;;
67514;SDS011;60646;55.802;37.032;2022-09-16T04:29:25;5.10;;;2.72;;
67514;SDS011;60646;55.802;37.032;2022-09-16T04:31:50;5.18;;;3.10;;
67514;SDS011;60646;55.802;37.032;2022-09-16T04:34:16;5.57;;;2.90;;
67514;SDS011;60646;55.802;37.032;2022-09-16T04:36:42;3.95;;;2.75;;
67514;SDS011;60646;55.802;37.032;2022-09-16T04:39:08;5.43;;;3.30;;
67514;SDS011;60646;55.802;37.032;2022-09-16T04:41:33;4.75;;;2.70;;
67514;SDS011;60646;55.802;37.032;2022-09-16T04:44:01;7.07;;;2.80;;
67514;SDS011;60646;55.802;37.032;2022-09-16T04:46:28;6.15;;;3.70;;
67514;SDS011;60646;55.802;37.032;2022-09-16T04:48:56;10.32;;;3.08;;
67514;SDS011;60646;55.802;37.032;2022-09-16T04:51:23;5.40;;;3.10;;
67514;SDS011;60646;55.802;37.032;2022-09-16T04:53:52;4.13;;;2.45;;
67514;SDS011;60646;55.802;37.032;2022-09-16T04:56:37;4.97;;;2.70;;
67514;SDS011;60646;55.802;37.032;2022-09-16T04:59:03;3.90;;;2.75;;
67514;SDS011;60646;55.802;37.032;2022-09-16T05:01:48;3.80;;;2.58;;
67514;SDS011;60646;55.802;37.032;2022-09-16T05:04:14;6.55;;;2.90;;
67514;SDS011;60646;55.802;37.032;2022-09-16T05:06:40;4.80;;;3.00;;
67514;SDS011;60646;55.802;37.032;2022-09-16T05:09:09;4.35;;;2.85;;
67514;SDS011;60646;55.802;37.032;2022-09-16T05:11:37;5.15;;;2.85;;
67514;SDS011;60646;55.802;37.032;2022-09-16T05:14:08;4.50;;;2.92;;
67514;SDS011;60646;55.802;37.032;2022-09-16T05:16:37;5.05;;;2.70;;
67514;SDS011;60646;55.802;37.032;2022-09-16T05:19:03;5.57;;;2.72;;
67514;SDS011;60646;55.802;37.032;2022-09-16T05:21:30;5.30;;;3.25;;
67514;SDS011;60646;55.802;37.032;2022-09-16T05:24:02;3.95;;;2.58;;
67514;SDS011;60646;55.802;37.032;2022-09-16T05:26:31;5.65;;;3.00;;
67514;SDS011;60646;55.802;37.032;2022-09-16T05:29:01;7.10;;;3.63;;
67514;SDS011;60646;55.802;37.032;2022-09-16T05:31:29;4.70;;;2.80;;
67514;SDS011;60646;55.802;37.032;2022-09-16T05:33:59;5.20;;;2.70;;
67514;SDS011;60646;55.802;37.032;2022-09-16T05:36:28;4.90;;;2.88;;
67514;SDS011;60646;55.802;37.032;2022-09-16T05:38:57;7.30;;;3.22;;
67514;SDS011;60646;55.802;37.032;2022-09-16T05:41:23;4.75;;;2.80;;
67514;SDS011;60646;55.802;37.032;2022-09-16T05:43:50;5.53;;;2.90;;
67514;SDS011;60646;55.802;37.032;2022-09-16T05:46:20;5.35;;;3.00;;
67514;SDS011;60646;55.802;37.032;2022-09-16T05:48:47;6.20;;;2.83;;
67514;SDS011;60646;55.802;37.032;2022-09-16T05:51:15;4.78;;;2.95;;
67514;SDS011;60646;55.802;37.032;2022-09-16T05:53:42;5.35;;;3.00;;
67514;SDS011;60646;55.802;37.032;2022-09-16T05:56:10;4.85;;;2.92;;
67514;SDS011;60646;55.802;37.032;2022-09-16T05:58:38;4.85;;;2.95;;
67514;SDS011;60646;55.802;37.032;2022-09-16T06:01:07;3.88;;;2.60;;
67514;SDS011;60646;55.802;37.032;2022-09-16T06:03:36;4.28;;;2.70;;
67514;SDS011;60646;55.802;37.032;2022-09-16T06:06:22;4.00;;;2.92;;
67514;SDS011;60646;55.802;37.032;2022-09-16T06:08:52;4.03;;;2.70;;
67514;SDS011;60646;55.802;37.032;2022-09-16T06:11:19;5.40;;;3.50;;
67514;SDS011;60646;55.802;37.032;2022-09-16T06:13:45;6.28;;;3.22;;
67514;SDS011;60646;55.802;37.032;2022-09-16T06:16:11;5.20;;;3.15;;
67514;SDS011;60646;55.802;37.032;2022-09-16T06:18:39;5.55;;;3.00;;
67514;SDS011;60646;55.802;37.032;2022-09-16T06:21:06;6.45;;;3.53;;
67514;SDS011;60646;55.802;37.032;2022-09-16T06:23:34;6.30;;;3.80;;
67514;SDS011;60646;55.802;37.032;2022-09-16T06:26:04;5.93;;;3.08;;
67514;SDS011;60646;55.802;37.032;2022-09-16T06:28:37;6.13;;;3.33;;
67514;SDS011;60646;55.802;37.032;2022-09-16T06:31:03;5.03;;;3.05;;
67514;SDS011;60646;55.802;37.032;2022-09-16T06:33:30;5.75;;;3.30;;
67514;SDS011;60646;55.802;37.032;2022-09-16T06:35:56;6.22;;;3.30;;
67514;SDS011;60646;55.802;37.032;2022-09-16T06:38:23;4.72;;;2.97;;
67514;SDS011;60646;55.802;37.032;2022-09-16T06:40:50;6.13;;;3.70;;
67514;SDS011;60646;55.802;37.032;2022-09-16T06:43:16;4.60;;;3.03;;
67514;SDS011;60646;55.802;37.032;2022-09-16T06:45:49;5.82;;;3.17;;
67514;SDS011;60646;55.802;37.032;2022-09-16T06:48:15;6.05;;;3.70;;
67514;SDS011;60646;55.802;37.032;2022-09-16T06:50:40;5.97;;;3.22;;
67514;SDS011;60646;55.802;37.032;2022-09-16T06:53:06;5.78;;;3.30;;
67514;SDS011;60646;55.802;37.032;2022-09-16T06:55:32;6.32;;;3.40;;
67514;SDS011;60646;55.802;37.032;2022-09-16T06:57:59;6.05;;;3.35;;
67514;SDS011;60646;55.802;37.032;2022-09-16T07:00:24;5.38;;;3.13;;
67514;SDS011;60646;55.802;37.032;2022-09-16T07:02:50;4.72;;;3.42;;
67514;SDS011;60646;55.802;37.032;2022-09-16T07:05:16;7.43;;;3.55;;
67514;SDS011;60646;55.802;37.032;2022-09-16T07:07:42;5.85;;;3.00;;
67514;SDS011;60646;55.802;37.032;2022-09-16T07:10:07;5.70;;;3.30;;
67514;SDS011;60646;55.802;37.032;2022-09-16T07:12:34;5.63;;;3.65;;
67514;SDS011;60646;55.802;37.032;2022-09-16T07:14:59;6.70;;;3.47;;
67514;SDS011;60646;55.802;37.032;2022-09-16T07:17:25;5.55;;;3.67;;
67514;SDS011;60646;55.802;37.032;2022-09-16T07:19:52;5.28;;;3.70;;
67514;SDS011;60646;55.802;37.032;2022-09-16T07:22:18;6.28;;;3.70;;
67514;SDS011;60646;55.802;37.032;2022-09-16T07:24:44;5.63;;;3.65;;
67514;SDS011;60646;55.802;37.032;2022-09-16T07:27:10;8.02;;;3.78;;
67514;SDS011;60646;55.802;37.032;2022-09-16T07:29:36;4.78;;;3.08;;
67514;SDS011;60646;55.802;37.032;2022-09-16T07:32:02;5.93;;;3.40;;
67514;SDS011;60646;55.802;37.032;2022-09-16T07:34:28;6.18;;;3.30;;
67514;SDS011;60646;55.802;37.032;2022-09-16T07:36:54;6.03;;;3.92;;
67514;SDS011;60646;55.802;37.032;2022-09-16T07:39:21;6.35;;;3.97;;
67514;SDS011;60646;55.802;37.032;2022-09-16T07:41:49;5.50;;;3.72;;
67514;SDS011;60646;55.802;37.032;2022-09-16T07:44:16;6.18;;;3.95;;
67514;SDS011;60646;55.802;37.032;2022-09-16T07:46:43;7.00;;;4.53;;
67514;SDS011;60646;55.802;37.032;2022-09-16T07:49:10;5.55;;;3.92;;
67514;SDS011;60646;55.802;37.032;2022-09-16T07:51:41;8.55;;;4.40;;
67514;SDS011;60646;55.802;37.032;2022-09-16T07:54:09;6.78;;;3.83;;
67514;SDS011;60646;55.802;37.032;2022-09-16T07:56:41;5.65;;;3.90;;
67514;SDS011;60646;55.802;37.032;2022-09-16T07:59:13;7.40;;;3.85;;
67514;SDS011;60646;55.802;37.032;2022-09-16T08:01:59;5.05;;;3.70;;
67514;SDS011;60646;55.802;37.032;2022-09-16T08:04:25;5.88;;;3.58;;
67514;SDS011;60646;55.802;37.032;2022-09-16T08:06:52;7.07;;;4.18;;
67514;SDS011;60646;55.802;37.032;2022-09-16T08:09:18;6.55;;;3.80;;
67514;SDS011;60646;55.802;37.032;2022-09-16T08:11:43;6.57;;;4.18;;
67514;SDS011;60646;55.802;37.032;2022-09-16T08:14:10;6.32;;;4.30;;
67514;SDS011;60646;55.802;37.032;2022-09-16T08:16:35;6.82;;;4.63;;
67514;SDS011;60646;55.802;37.032;2022-09-16T08:19:01;9.98;;;4.60;;
67514;SDS011;60646;55.802;37.032;2022-09-16T08:21:28;8.52;;;4.75;;
67514;SDS011;60646;55.802;37.032;2022-09-16T08:23:54;7.82;;;4.32;;
67514;SDS011;60646;55.802;37.032;2022-09-16T08:26:21;6.82;;;4.18;;
67514;SDS011;60646;55.802;37.032;2022-09-16T08:28:47;6.55;;;4.35;;
67514;SDS011;60646;55.802;37.032;2022-09-16T08:31:14;6.38;;;4.60;;
67514;SDS011;60646;55.802;37.032;2022-09-16T08:33:41;8.88;;;5.00;;
67514;SDS011;60646;55.802;37.032;2022-09-16T08:38:42;7.80;;;4.60;;
67514;SDS011;60646;55.802;37.032;2022-09-16T08:43:42;7.13;;;4.63;;
67514;SDS011;60646;55.802;37.032;2022-09-16T08:46:17;6.55;;;4.38;;
67514;SDS011;60646;55.802;37.032;2022-09-16T08:48:58;7.82;;;4.40;;
67514;SDS011;60646;55.802;37.032;2022-09-16T08:51:31;7.20;;;4.60;;
67514;SDS011;60646;55.802;37.032;2022-09-16T08:54:05;7.53;;;4.55;;
67514;SDS011;60646;55.802;37.032;2022-09-16T08:56:35;7.03;;;4.45;;
67514;SDS011;60646;55.802;37.032;2022-09-16T08:59:03;6.65;;;4.45;;
67514;SDS011;60646;55.802;37.032;2022-09-16T09:04:34;6.13;;;4.13;;
67514;SDS011;60646;55.802;37.032;2022-09-16T09:12:39;7.15;;;4.18;;
67514;SDS011;60646;55.802;37.032;2022-09-16T09:20:32;7.25;;;4.10;;
67514;SDS011;60646;55.802;37.032;2022-09-16T09:31:51;7.40;;;3.58;;
67514;SDS011;60646;55.802;37.032;2022-09-16T09:40:44;5.65;;;3.05;;
67514;SDS011;60646;55.802;37.032;2022-09-16T09:43:23;4.43;;;3.05;;
67514;SDS011;60646;55.802;37.032;2022-09-16T09:48:37;6.00;;;3.20;;
67514;SDS011;60646;55.802;37.032;2022-09-16T09:53:54;4.75;;;2.88;;
67514;SDS011;60646;55.802;37.032;2022-09-16T09:56:31;6.28;;;3.00;;
67514;SDS011;60646;55.802;37.032;2022-09-16T10:01:44;5.80;;;3.25;;
67514;SDS011;60646;55.802;37.032;2022-09-16T10:04:13;4.85;;;2.88;;
67514;SDS011;60646;55.802;37.032;2022-09-16T10:06:40;6.15;;;3.30;;
67514;SDS011;60646;55.802;37.032;2022-09-16T10:09:07;4.70;;;2.95;;
67514;SDS011;60646;55.802;37.032;2022-09-16T10:11:46;5.10;;;2.90;;
67514;SDS011;60646;55.802;37.032;2022-09-16T10:14:22;4.43;;;2.80;;
67514;SDS011;60646;55.802;37.032;2022-09-16T10:16:52;4.18;;;2.92;;
67514;SDS011;60646;55.802;37.032;2022-09-16T10:19:23;4.95;;;3.13;;
67514;SDS011;60646;55.802;37.032;2022-09-16T10:21:53;4.05;;;2.72;;
67514;SDS011;60646;55.802;37.032;2022-09-16T10:24:37;6.20;;;3.17;;
67514;SDS011;60646;55.802;37.032;2022-09-16T10:27:22;4.93;;;2.55;;
67514;SDS011;60646;55.802;37.032;2022-09-16T10:35:27;4.28;;;2.60;;
67514;SDS011;60646;55.802;37.032;2022-09-16T10:37:58;4.00;;;2.50;;
67514;SDS011;60646;55.802;37.032;2022-09-16T10:40:28;4.40;;;2.72;;
67514;SDS011;60646;55.802;37.032;2022-09-16T10:42:58;3.70;;;2.65;;
67514;SDS011;60646;55.802;37.032;2022-09-16T10:45:28;4.20;;;2.80;;
67514;SDS011;60646;55.802;37.032;2022-09-16T10:48:18;4.47;;;3.15;;
67514;SDS011;60646;55.802;37.032;2022-09-16T10:53:43;4.30;;;3.00;;
67514;SDS011;60646;55.802;37.032;2022-09-16T10:59:13;5.40;;;3.00;;
67514;SDS011;60646;55.802;37.032;2022-09-16T11:04:35;6.75;;;3.05;;
67514;SDS011;60646;55.802;37.032;2022-09-16T11:12:59;4.35;;;2.92;;
67514;SDS011;60646;55.802;37.032;2022-09-16T11:16:14;4.35;;;3.10;;
67514;SDS011;60646;55.802;37.032;2022-09-16T11:18:55;4.15;;;2.80;;
67514;SDS011;60646;55.802;37.032;2022-09-16T11:24:27;4.95;;;2.67;;
67514;SDS011;60646;55.802;37.032;2022-09-16T11:30:23;5.28;;;2.80;;
67514;SDS011;60646;55.802;37.032;2022-09-16T11:32:54;5.50;;;3.08;;
67514;SDS011;60646;55.802;37.032;2022-09-16T11:57:14;4.85;;;3.00;;
67514;SDS011;60646;55.802;37.032;2022-09-16T11:59:59;5.38;;;3.13;;
67514;SDS011;60646;55.802;37.032;2022-09-16T12:05:46;4.20;;;3.25;;
67514;SDS011;60646;55.802;37.032;2022-09-16T12:13:49;5.18;;;3.33;;
67514;SDS011;60646;55.802;37.032;2022-09-16T12:16:26;4.45;;;3.00;;
67514;SDS011;60646;55.802;37.032;2022-09-16T12:19:00;4.53;;;3.30;;
67514;SDS011;60646;55.802;37.032;2022-09-16T12:21:37;6.47;;;3.55;;
67514;SDS011;60646;55.802;37.032;2022-09-16T12:24:14;6.43;;;4.00;;
67514;SDS011;60646;55.802;37.032;2022-09-16T12:30:03;5.25;;;3.28;;
67514;SDS011;60646;55.802;37.032;2022-09-16T12:32:51;5.82;;;3.28;;
67514;SDS011;60646;55.802;37.032;2022-09-16T12:35:37;5.07;;;3.30;;
67514;SDS011;60646;55.802;37.032;2022-09-16T12:38:13;6.13;;;3.67;;
67514;SDS011;60646;55.802;37.032;2022-09-16T12:53:00;5.20;;;3.22;;
67514;SDS011;60646;55.802;37.032;2022-09-16T13:03:40;5.90;;;3.60;;
67514;SDS011;60646;55.802;37.032;2022-09-16T13:06:17;7.75;;;3.53;;
67514;SDS011;60646;55.802;37.032;2022-09-16T13:08:49;7.13;;;3.50;;
67514;SDS011;60646;55.802;37.032;2022-09-16T13:11:20;5.22;;;3.38;;
67514;SDS011;60646;55.802;37.032;2022-09-16T13:13:50;5.20;;;3.35;;
67514;SDS011;60646;55.802;37.032;2022-09-16T13:16:53;5.07;;;3.50;;
67514;SDS011;60646;55.802;37.032;2022-09-16T13:22:16;5.13;;;3.55;;
67514;SDS011;60646;55.802;37.032;2022-09-16T13:24:52;9.02;;;4.22;;
67514;SDS011;60646;55.802;37.032;2022-09-16T13:27:57;5.53;;;3.70;;
67514;SDS011;60646;55.802;37.032;2022-09-16T13:30:34;6.63;;;3.78;;
67514;SDS011;60646;55.802;37.032;2022-09-16T13:35:41;5.80;;;3.53;;
67514;SDS011;60646;55.802;37.032;2022-09-16T13:38:35;5.78;;;3.55;;
67514;SDS011;60646;55.802;37.032;2022-09-16T13:41:07;6.63;;;4.43;;
67514;SDS011;60646;55.802;37.032;2022-09-16T13:43:36;6.38;;;3.60;;
67514;SDS011;60646;55.802;37.032;2022-09-16T13:46:29;6.15;;;3.67;;
67514;SDS011;60646;55.802;37.032;2022-09-16T13:49:03;6.50;;;3.97;;
67514;SDS011;60646;55.802;37.032;2022-09-16T13:51:37;7.60;;;3.97;;
67514;SDS011;60646;55.802;37.032;2022-09-16T13:54:38;7.63;;;3.90;;
67514;SDS011;60646;55.802;37.032;2022-09-16T13:57:17;6.57;;;4.28;;
67514;SDS011;60646;55.802;37.032;2022-09-16T14:13:39;5.22;;;3.42;;
67514;SDS011;60646;55.802;37.032;2022-09-16T14:19:27;4.35;;;3.17;;
67514;SDS011;60646;55.802;37.032;2022-09-16T14:24:34;5.30;;;3.10;;
67514;SDS011;60646;55.802;37.032;2022-09-16T14:27:01;5.20;;;3.42;;
67514;SDS011;60646;55.802;37.032;2022-09-16T14:29:27;4.38;;;3.03;;
67514;SDS011;60646;55.802;37.032;2022-09-16T14:31:53;5.15;;;3.08;;
67514;SDS011;60646;55.802;37.032;2022-09-16T14:34:24;4.97;;;3.13;;
67514;SDS011;60646;55.802;37.032;2022-09-16T14:37:21;4.38;;;3.00;;
67514;SDS011;60646;55.802;37.032;2022-09-16T14:39:50;4.82;;;2.60;;
67514;SDS011;60646;55.802;37.032;2022-09-16T14:42:18;3.85;;;2.45;;
67514;SDS011;60646;55.802;37.032;2022-09-16T14:44:47;4.68;;;2.55;;
67514;SDS011;60646;55.802;37.032;2022-09-16T14:47:37;2.88;;;2.15;;
67514;SDS011;60646;55.802;37.032;2022-09-16T14:50:10;3.28;;;2.00;;
67514;SDS011;60646;55.802;37.032;2022-09-16T14:52:54;3.08;;;2.45;;
67514;SDS011;60646;55.802;37.032;2022-09-16T14:55:23;3.15;;;1.98;;
67514;SDS011;60646;55.802;37.032;2022-09-16T14:57:51;3.38;;;2.30;;
67514;SDS011;60646;55.802;37.032;2022-09-16T15:00:17;3.10;;;2.25;;
67514;SDS011;60646;55.802;37.032;2022-09-16T15:02:46;4.18;;;2.53;;
67514;SDS011;60646;55.802;37.032;2022-09-16T15:07:48;4.13;;;2.10;;
67514;SDS011;60646;55.802;37.032;2022-09-16T15:10:23;3.70;;;2.20;;
67514;SDS011;60646;55.802;37.032;2022-09-16T15:13:00;3.45;;;2.28;;
67514;SDS011;60646;55.802;37.032;2022-09-16T15:15:33;3.55;;;3.00;;
67514;SDS011;60646;55.802;37.032;2022-09-16T15:18:04;2.60;;;1.92;;
67514;SDS011;60646;55.802;37.032;2022-09-16T15:20:38;3.25;;;2.58;;
67514;SDS011;60646;55.802;37.032;2022-09-16T15:23:06;3.20;;;2.22;;
67514;SDS011;60646;55.802;37.032;2022-09-16T15:26:19;3.25;;;2.22;;
67514;SDS011;60646;55.802;37.032;2022-09-16T15:28:51;2.78;;;2.28;;
67514;SDS011;60646;55.802;37.032;2022-09-16T15:39:23;3.88;;;2.28;;
67514;SDS011;60646;55.802;37.032;2022-09-16T15:42:01;4.78;;;2.47;;
67514;SDS011;60646;55.802;37.032;2022-09-16T15:44:56;3.78;;;2.50;;
67514;SDS011;60646;55.802;37.032;2022-09-16T15:47:31;3.58;;;2.58;;
67514;SDS011;60646;55.802;37.032;2022-09-16T15:50:06;4.35;;;2.33;;
67514;SDS011;60646;55.802;37.032;2022-09-16T15:52:47;3.08;;;2.20;;
67514;SDS011;60646;55.802;37.032;2022-09-16T15:55:23;4.03;;;2.45;;
67514;SDS011;60646;55.802;37.032;2022-09-16T15:57:50;3.20;;;2.30;;
67514;SDS011;60646;55.802;37.032;2022-09-16T16:00:23;3.53;;;2.60;;
67514;SDS011;60646;55.802;37.032;2022-09-16T16:02:51;4.13;;;2.70;;
67514;SDS011;60646;55.802;37.032;2022-09-16T16:05:25;3.83;;;2.40;;
67514;SDS011;60646;55.802;37.032;2022-09-16T16:07:55;3.75;;;2.58;;
67514;SDS011;60646;55.802;37.032;2022-09-16T16:10:23;4.03;;;2.70;;
67514;SDS011;60646;55.802;37.032;2022-09-16T16:12:51;6.35;;;3.10;;
67514;SDS011;60646;55.802;37.032;2022-09-16T16:18:09;4.40;;;2.75;;
67514;SDS011;60646;55.802;37.032;2022-09-16T16:20:36;3.47;;;2.50;;
67514;SDS011;60646;55.802;37.032;2022-09-16T16:23:04;3.58;;;2.78;;
67514;SDS011;60646;55.802;37.032;2022-09-16T16:25:29;4.00;;;2.63;;
67514;SDS011;60646;55.802;37.032;2022-09-16T16:27:55;4.18;;;2.70;;
67514;SDS011;60646;55.802;37.032;2022-09-16T16:30:21;4.57;;;3.22;;
67514;SDS011;60646;55.802;37.032;2022-09-16T16:32:47;4.03;;;2.72;;
67514;SDS011;60646;55.802;37.032;2022-09-16T16:35:13;4.43;;;2.95;;
67514;SDS011;60646;55.802;37.032;2022-09-16T16:37:39;6.22;;;3.08;;
67514;SDS011;60646;55.802;37.032;2022-09-16T16:40:05;4.82;;;3.08;;
67514;SDS011;60646;55.802;37.032;2022-09-16T16:42:32;5.55;;;3.03;;
67514;SDS011;60646;55.802;37.032;2022-09-16T16:44:58;4.00;;;2.53;;
67514;SDS011;60646;55.802;37.032;2022-09-16T16:47:24;4.35;;;2.80;;
67514;SDS011;60646;55.802;37.032;2022-09-16T16:49:50;4.07;;;2.83;;
67514;SDS011;60646;55.802;37.032;2022-09-16T16:56:10;3.70;;;2.50;;
67514;SDS011;60646;55.802;37.032;2022-09-16T16:58:38;3.97;;;2.75;;
67514;SDS011;60646;55.802;37.032;2022-09-16T17:01:17;4.15;;;2.85;;
67514;SDS011;60646;55.802;37.032;2022-09-16T17:04:12;4.72;;;2.97;;
67514;SDS011;60646;55.802;37.032;2022-09-16T17:06:38;4.10;;;2.83;;
67514;SDS011;60646;55.802;37.032;2022-09-16T17:09:08;4.68;;;3.30;;
67514;SDS011;60646;55.802;37.032;2022-09-16T17:11:52;4.68;;;3.10;;
67514;SDS011;60646;55.802;37.032;2022-09-16T17:14:37;4.40;;;2.88;;
67514;SDS011;60646;55.802;37.032;2022-09-16T17:17:04;4.68;;;3.10;;
67514;SDS011;60646;55.802;37.032;2022-09-16T17:20:23;3.75;;;2.72;;
67514;SDS011;60646;55.802;37.032;2022-09-16T17:24:31;4.00;;;2.78;;
67514;SDS011;60646;55.802;37.032;2022-09-16T17:27:02;5.40;;;3.20;;
67514;SDS011;60646;55.802;37.032;2022-09-16T17:29:28;3.60;;;2.50;;
67514;SDS011;60646;55.802;37.032;2022-09-16T17:31:59;5.38;;;2.92;;
67514;SDS011;60646;55.802;37.032;2022-09-16T17:34:33;4.10;;;2.80;;
67514;SDS011;60646;55.802;37.032;2022-09-16T17:38:01;3.42;;;2.42;;
67514;SDS011;60646;55.802;37.032;2022-09-16T17:40:30;4.20;;;2.80;;
67514;SDS011;60646;55.802;37.032;2022-09-16T17:42:56;5.55;;;2.88;;
67514;SDS011;60646;55.802;37.032;2022-09-16T17:45:22;4.75;;;2.97;;
67514;SDS011;60646;55.802;37.032;2022-09-16T17:47:49;3.72;;;2.50;;
67514;SDS011;60646;55.802;37.032;2022-09-16T17:50:14;4.30;;;2.65;;
67514;SDS011;60646;55.802;37.032;2022-09-16T17:52:48;3.28;;;2.42;;
67514;SDS011;60646;55.802;37.032;2022-09-16T17:55:14;5.82;;;3.10;;
67514;SDS011;60646;55.802;37.032;2022-09-16T17:57:40;5.43;;;2.83;;
67514;SDS011;60646;55.802;37.032;2022-09-16T18:00:05;4.97;;;2.83;;
67514;SDS011;60646;55.802;37.032;2022-09-16T18:02:37;4.55;;;2.88;;
67514;SDS011;60646;55.802;37.032;2022-09-16T18:05:03;4.13;;;2.72;;
67514;SDS011;60646;55.802;37.032;2022-09-16T18:07:29;3.45;;;2.63;;
67514;SDS011;60646;55.802;37.032;2022-09-16T18:09:55;4.25;;;2.67;;
67514;SDS011;60646;55.802;37.032;2022-09-16T18:12:21;3.47;;;2.35;;
67514;SDS011;60646;55.802;37.032;2022-09-16T18:14:47;4.00;;;2.58;;
67514;SDS011;60646;55.802;37.032;2022-09-16T18:17:13;5.97;;;2.83;;
67514;SDS011;60646;55.802;37.032;2022-09-16T18:19:39;3.88;;;2.55;;
67514;SDS011;60646;55.802;37.032;2022-09-16T18:22:05;4.90;;;2.75;;
67514;SDS011;60646;55.802;37.032;2022-09-16T18:24:31;4.03;;;2.17;;
67514;SDS011;60646;55.802;37.032;2022-09-16T18:26:57;3.75;;;2.53;;
67514;SDS011;60646;55.802;37.032;2022-09-16T18:29:23;4.28;;;2.35;;
67514;SDS011;60646;55.802;37.032;2022-09-16T18:31:49;3.28;;;2.30;;
67514;SDS011;60646;55.802;37.032;2022-09-16T18:34:17;4.43;;;2.60;;
67514;SDS011;60646;55.802;37.032;2022-09-16T18:36:43;3.45;;;2.50;;
67514;SDS011;60646;55.802;37.032;2022-09-16T18:39:13;3.95;;;2.65;;
67514;SDS011;60646;55.802;37.032;2022-09-16T18:41:41;4.38;;;2.60;;
67514;SDS011;60646;55.802;37.032;2022-09-16T18:44:15;4.82;;;3.40;;
67514;SDS011;60646;55.802;37.032;2022-09-16T18:46:45;3.90;;;3.00;;